createdAt,value
2022-08-26T00:00:29.371Z,20.66
2022-08-26T00:02:01.650Z,20.64
2022-08-26T00:03:34.530Z,20.61
2022-08-26T00:05:06.251Z,20.59
2022-08-26T00:06:37.871Z,20.58
2022-08-26T00:08:14.765Z,20.54
2022-08-26T00:09:47.320Z,20.48
2022-08-26T00:11:26.328Z,20.44
2022-08-26T00:12:58.733Z,20.40
2022-08-26T00:14:31.669Z,20.42
2022-08-26T00:16:04.333Z,20.42
2022-08-26T00:17:36.504Z,20.43
2022-08-26T00:19:12.654Z,20.43
2022-08-26T00:20:44.775Z,20.41
2022-08-26T00:22:21.472Z,20.40
2022-08-26T00:23:53.608Z,20.35
2022-08-26T00:25:25.548Z,20.36
2022-08-26T00:26:57.384Z,20.40
2022-08-26T00:28:30.394Z,20.43
2022-08-26T00:30:02.647Z,20.43
2022-08-26T00:31:34.357Z,20.40
2022-08-26T00:33:08.228Z,20.42
2022-08-26T00:34:40.204Z,20.42
2022-08-26T00:36:19.937Z,20.41
2022-08-26T00:37:52.178Z,20.39
2022-08-26T00:39:24.140Z,20.32
2022-08-26T00:40:56.014Z,20.29
2022-08-26T00:42:27.947Z,20.27
2022-08-26T00:43:59.878Z,20.22
2022-08-26T00:45:34.938Z,20.17
2022-08-26T00:47:08.132Z,20.15
2022-08-26T00:48:39.817Z,20.12
2022-08-26T00:50:14.902Z,20.09
2022-08-26T00:51:51.344Z,20.07
2022-08-26T00:53:24.130Z,20.09
2022-08-26T00:55:20.896Z,20.06
2022-08-26T00:56:57.872Z,20.04
2022-08-26T00:58:32.998Z,20.03
2022-08-26T01:00:06.859Z,20.02
2022-08-26T01:01:38.769Z,20.04
2022-08-26T01:03:11.552Z,20.03
2022-08-26T01:04:44.587Z,20.02
2022-08-26T01:06:17.148Z,20.01
2022-08-26T01:07:49.809Z,20.00
2022-08-26T01:09:22.365Z,19.97
2022-08-26T01:10:54.985Z,19.93
2022-08-26T01:12:28.269Z,19.92
2022-08-26T01:14:00.376Z,19.91
2022-08-26T01:15:35.082Z,19.87
2022-08-26T01:17:07.658Z,19.86
2022-08-26T01:18:41.391Z,19.85
2022-08-26T01:20:17.877Z,19.87
2022-08-26T01:21:57.142Z,19.89
2022-08-26T01:23:29.943Z,19.93
2022-08-26T01:25:03.464Z,19.94
2022-08-26T01:26:41.635Z,19.94
2022-08-26T01:28:32.420Z,19.93
2022-08-26T01:30:05.558Z,19.92
2022-08-26T01:31:41.887Z,19.89
2022-08-26T01:33:15.350Z,19.89
2022-08-26T01:34:47.405Z,19.89
2022-08-26T01:36:19.541Z,19.86
2022-08-26T01:37:52.844Z,19.78
2022-08-26T01:39:25.194Z,19.71
2022-08-26T01:40:57.106Z,19.71
2022-08-26T01:42:29.032Z,19.70
2022-08-26T01:44:01.120Z,19.67
2022-08-26T01:45:33.497Z,19.57
2022-08-26T01:47:06.507Z,19.55
2022-08-26T01:48:38.385Z,19.52
2022-08-26T01:50:12.231Z,19.43
2022-08-26T01:51:47.697Z,19.36
2022-08-26T01:53:19.496Z,19.36
2022-08-26T01:54:53.132Z,19.36
2022-08-26T01:56:25.255Z,19.33
2022-08-26T01:58:06.329Z,19.28
2022-08-26T01:59:38.225Z,19.27
2022-08-26T02:01:10.150Z,19.24
2022-08-26T02:02:44.105Z,19.22
2022-08-26T02:04:30.239Z,19.18
2022-08-26T02:06:04.162Z,19.19
2022-08-26T02:07:35.804Z,19.19
2022-08-26T02:09:07.620Z,19.19
2022-08-26T02:10:39.177Z,19.17
2022-08-26T02:12:12.008Z,19.15
2022-08-26T02:13:44.428Z,19.14
2022-08-26T02:15:16.025Z,19.15
2022-08-26T02:16:49.049Z,19.11
2022-08-26T02:18:22.862Z,19.08
2022-08-26T02:19:54.591Z,19.08
2022-08-26T02:21:26.490Z,19.05
2022-08-26T02:22:58.190Z,19.05
2022-08-26T02:24:30.623Z,19.04
2022-08-26T02:26:12.757Z,19.04
2022-08-26T02:27:49.736Z,19.03
2022-08-26T02:29:21.663Z,18.98
2022-08-26T02:30:55.450Z,18.95
2022-08-26T02:32:27.307Z,18.98
2022-08-26T02:34:28.379Z,18.99
2022-08-26T02:36:03.857Z,19.00
2022-08-26T02:37:35.535Z,19.03
2022-08-26T02:39:07.649Z,19.05
2022-08-26T02:40:41.126Z,19.08
2022-08-26T02:42:13.482Z,19.08
2022-08-26T02:43:45.475Z,19.09
2022-08-26T02:45:23.045Z,19.12
2022-08-26T02:46:55.500Z,19.12
2022-08-26T02:48:28.042Z,19.08
2022-08-26T02:49:59.863Z,19.05
2022-08-26T02:51:31.452Z,19.04
2022-08-26T02:53:05.184Z,19.09
2022-08-26T02:54:37.892Z,19.12
2022-08-26T02:56:09.821Z,19.14
2022-08-26T02:57:41.423Z,19.13
2022-08-26T02:59:13.285Z,19.13
2022-08-26T03:00:52.558Z,19.13
2022-08-26T03:02:25.068Z,19.14
2022-08-26T03:03:57.874Z,19.14
2022-08-26T03:05:29.829Z,19.16
2022-08-26T03:07:01.721Z,19.17
2022-08-26T03:08:33.476Z,19.14
2022-08-26T03:10:06.916Z,19.12
2022-08-26T03:11:40.313Z,19.14
2022-08-26T03:13:12.560Z,19.15
2022-08-26T03:14:44.635Z,19.14
2022-08-26T03:16:16.451Z,19.12
2022-08-26T03:17:48.483Z,19.09
2022-08-26T03:19:22.831Z,19.02
2022-08-26T03:20:54.444Z,19.00
2022-08-26T03:22:26.266Z,18.98
2022-08-26T03:23:58.898Z,18.96
2022-08-26T03:25:32.305Z,18.94
2022-08-26T03:27:07.382Z,18.94
2022-08-26T03:28:59.182Z,18.93
2022-08-26T03:30:44.793Z,18.92
2022-08-26T03:32:17.033Z,18.90
2022-08-26T03:33:48.629Z,18.91
2022-08-26T03:35:23.528Z,18.90
2022-08-26T03:36:56.315Z,18.89
2022-08-26T03:38:28.038Z,18.88
2022-08-26T03:40:01.364Z,18.85
2022-08-26T03:41:36.868Z,18.87
2022-08-26T03:43:09.790Z,18.90
2022-08-26T03:44:42.069Z,18.94
2022-08-26T03:46:14.137Z,18.96
2022-08-26T03:47:46.340Z,18.94
2022-08-26T03:49:19.292Z,18.94
2022-08-26T03:50:50.892Z,19.02
2022-08-26T03:52:23.197Z,19.08
2022-08-26T03:53:54.857Z,19.08
2022-08-26T03:55:31.348Z,19.05
2022-08-26T03:57:03.210Z,19.02
2022-08-26T03:58:35.359Z,19.02
2022-08-26T04:00:07.919Z,19.05
2022-08-26T04:01:39.831Z,19.07
2022-08-26T04:03:16.863Z,19.12
2022-08-26T04:04:50.662Z,19.19
2022-08-26T04:06:22.808Z,19.25
2022-08-26T04:07:56.089Z,19.27
2022-08-26T04:09:27.900Z,19.31
2022-08-26T04:11:01.560Z,19.31
2022-08-26T04:12:33.883Z,19.31
2022-08-26T04:14:07.277Z,19.33
2022-08-26T04:15:39.528Z,19.31
2022-08-26T04:17:11.955Z,19.32
2022-08-26T04:18:46.568Z,19.30
2022-08-26T04:20:18.756Z,19.31
2022-08-26T04:21:53.497Z,19.29
2022-08-26T04:23:25.140Z,19.25
2022-08-26T04:24:57.339Z,19.27
2022-08-26T04:26:29.057Z,19.31
2022-08-26T04:28:00.619Z,19.32
2022-08-26T04:29:32.318Z,19.32
2022-08-26T04:31:04.670Z,19.30
2022-08-26T04:32:36.383Z,19.34
2022-08-26T04:34:08.239Z,19.37
2022-08-26T04:35:44.309Z,19.42
2022-08-26T04:37:16.504Z,19.46
2022-08-26T04:38:50.798Z,19.44
2022-08-26T04:40:23.606Z,19.41
2022-08-26T04:41:55.384Z,19.45
2022-08-26T04:43:30.654Z,19.45
2022-08-26T04:45:05.667Z,19.44
2022-08-26T04:46:43.918Z,19.42
2022-08-26T04:48:16.787Z,19.42
2022-08-26T04:49:48.850Z,19.46
2022-08-26T04:51:21.259Z,19.50
2022-08-26T04:52:53.712Z,19.49
2022-08-26T04:54:26.359Z,19.46
2022-08-26T04:55:58.237Z,19.47
2022-08-26T04:57:29.962Z,19.54
2022-08-26T04:59:01.844Z,19.61
2022-08-26T05:00:33.953Z,19.64
2022-08-26T05:02:07.287Z,19.65
2022-08-26T05:03:39.104Z,19.65
2022-08-26T05:05:14.372Z,19.67
2022-08-26T05:06:46.545Z,19.72
2022-08-26T05:08:18.601Z,19.77
2022-08-26T05:09:50.652Z,19.81
2022-08-26T05:11:23.339Z,19.88
2022-08-26T05:12:54.951Z,19.89
2022-08-26T05:14:28.137Z,19.92
2022-08-26T05:16:02.592Z,19.95
2022-08-26T05:17:34.237Z,20.01
2022-08-26T05:19:06.979Z,20.04
2022-08-26T05:20:40.866Z,20.07
2022-08-26T05:22:13.353Z,20.09
2022-08-26T05:23:45.317Z,20.10
2022-08-26T05:25:17.650Z,20.10
2022-08-26T05:26:49.852Z,20.10
2022-08-26T05:28:22.152Z,20.09
2022-08-26T05:29:56.568Z,20.14
2022-08-26T05:31:30.105Z,20.24
2022-08-26T05:33:02.141Z,20.34
2022-08-26T05:34:34.480Z,20.43
2022-08-26T05:36:08.365Z,20.58
2022-08-26T05:37:40.999Z,20.64
2022-08-26T05:39:12.693Z,20.77
2022-08-26T05:40:45.914Z,20.90
2022-08-26T05:42:17.847Z,21.08
2022-08-26T05:43:49.693Z,21.26
2022-08-26T05:45:24.427Z,21.40
2022-08-26T05:46:56.243Z,21.58
2022-08-26T05:48:28.378Z,21.75
2022-08-26T05:50:00.811Z,21.91
2022-08-26T05:51:32.748Z,22.09
2022-08-26T05:53:05.461Z,22.29
2022-08-26T05:54:38.949Z,22.42
2022-08-26T05:56:10.832Z,22.54
2022-08-26T05:57:43.130Z,22.63
2022-08-26T05:59:21.419Z,22.69
2022-08-26T06:00:57.381Z,22.72
2022-08-26T06:02:29.345Z,22.69
2022-08-26T06:04:01.996Z,22.69
2022-08-26T06:05:39.231Z,22.70
2022-08-26T06:07:12.087Z,22.73
2022-08-26T06:08:45.382Z,22.77
2022-08-26T06:10:31.969Z,22.81
2022-08-26T06:12:04.836Z,22.88
2022-08-26T06:13:36.508Z,22.94
2022-08-26T06:15:08.527Z,23.02
2022-08-26T06:16:41.280Z,23.14
2022-08-26T06:18:14.854Z,23.22
2022-08-26T06:19:47.515Z,23.34
2022-08-26T06:21:23.163Z,23.46
2022-08-26T06:23:14.242Z,23.62
2022-08-26T06:25:04.386Z,23.80
2022-08-26T06:26:36.698Z,23.90
2022-08-26T06:28:08.772Z,23.82
2022-08-26T06:29:42.421Z,23.82
2022-08-26T06:31:14.916Z,23.88
2022-08-26T06:32:46.911Z,23.96
2022-08-26T06:34:18.841Z,23.97
2022-08-26T06:35:50.992Z,23.93
2022-08-26T06:37:22.857Z,23.93
2022-08-26T06:38:55.731Z,24.05
2022-08-26T06:40:27.521Z,24.14
2022-08-26T06:42:00.159Z,24.22
2022-08-26T06:43:32.286Z,24.30
2022-08-26T06:45:06.090Z,24.28
2022-08-26T06:46:37.915Z,24.28
2022-08-26T06:48:09.807Z,24.29
2022-08-26T06:49:42.436Z,24.32
2022-08-26T06:51:17.743Z,24.31
2022-08-26T06:52:49.788Z,24.21
2022-08-26T06:54:21.745Z,24.16
2022-08-26T06:55:54.021Z,24.22
2022-08-26T06:57:26.009Z,24.33
2022-08-26T06:58:57.838Z,24.48
2022-08-26T07:00:31.975Z,24.65
2022-08-26T07:02:04.304Z,24.87
2022-08-26T07:03:39.753Z,25.08
2022-08-26T07:05:12.334Z,25.30
2022-08-26T07:06:49.133Z,25.48
2022-08-26T07:08:22.662Z,25.65
2022-08-26T07:09:55.015Z,25.81
2022-08-26T07:11:26.952Z,25.73
2022-08-26T07:12:59.940Z,25.64
2022-08-26T07:14:32.285Z,25.63
2022-08-26T07:16:05.273Z,25.60
2022-08-26T07:17:37.959Z,25.59
2022-08-26T07:19:11.302Z,25.53
2022-08-26T07:20:44.306Z,25.44
2022-08-26T07:22:16.897Z,25.37
2022-08-26T07:23:50.187Z,25.25
2022-08-26T07:25:22.467Z,25.23
2022-08-26T07:26:54.301Z,25.16
2022-08-26T07:28:26.251Z,25.17
2022-08-26T07:29:58.158Z,25.23
2022-08-26T07:31:33.621Z,25.28
2022-08-26T07:33:11.150Z,25.30
2022-08-26T07:34:43.719Z,25.38
2022-08-26T07:36:15.955Z,25.42
2022-08-26T07:37:47.930Z,25.42
2022-08-26T07:39:20.545Z,25.41
2022-08-26T07:40:54.771Z,25.42
2022-08-26T07:42:27.627Z,25.43
2022-08-26T07:43:59.858Z,25.47
2022-08-26T07:45:32.141Z,25.44
2022-08-26T07:47:10.180Z,25.41
2022-08-26T07:48:56.558Z,25.40
2022-08-26T07:50:50.116Z,25.45
2022-08-26T07:52:25.322Z,25.53
2022-08-26T07:53:58.859Z,25.59
2022-08-26T07:55:30.624Z,25.71
2022-08-26T07:57:09.281Z,25.76
2022-08-26T07:58:42.617Z,25.84
2022-08-26T08:00:16.263Z,25.92
2022-08-26T08:01:48.855Z,26.07
2022-08-26T08:03:21.186Z,26.22
2022-08-26T08:04:55.157Z,26.34
2022-08-26T08:06:28.358Z,26.42
2022-08-26T08:08:27.325Z,26.43
2022-08-26T08:09:53.394Z,26.47
2022-08-26T08:11:27.543Z,26.51
2022-08-26T08:12:59.577Z,26.59
2022-08-26T08:14:31.725Z,26.72
2022-08-26T08:16:03.952Z,26.86
2022-08-26T08:17:36.291Z,26.92
2022-08-26T08:19:08.771Z,26.96
2022-08-26T08:20:44.640Z,26.99
2022-08-26T08:22:19.936Z,26.98
2022-08-26T08:23:54.106Z,27.07
2022-08-26T08:25:28.820Z,27.21
2022-08-26T08:27:03.918Z,27.35
2022-08-26T08:28:36.958Z,27.44
2022-08-26T08:30:09.274Z,27.49
2022-08-26T08:31:55.884Z,27.58
2022-08-26T08:33:31.806Z,27.60
2022-08-26T08:35:11.107Z,27.58
2022-08-26T08:36:43.515Z,27.54
2022-08-26T08:38:15.906Z,27.62
2022-08-26T08:39:47.843Z,27.77
2022-08-26T08:41:24.485Z,27.91
2022-08-26T08:42:58.159Z,28.04
2022-08-26T08:44:30.681Z,28.18
2022-08-26T08:46:04.662Z,28.33
2022-08-26T08:47:37.891Z,28.39
2022-08-26T08:49:09.945Z,28.40
2022-08-26T08:50:48.178Z,28.43
2022-08-26T08:52:29.052Z,28.47
2022-08-26T08:54:02.028Z,28.50
2022-08-26T08:55:40.845Z,28.61
2022-08-26T08:57:13.451Z,28.70
2022-08-26T08:58:45.335Z,28.84
2022-08-26T09:00:18.220Z,28.90
2022-08-26T09:02:03.878Z,29.01
2022-08-26T09:03:41.935Z,29.23
2022-08-26T09:05:19.512Z,29.30
2022-08-26T09:06:53.156Z,29.34
2022-08-26T09:08:27.681Z,29.35
2022-08-26T09:10:20.622Z,29.42
2022-08-26T09:11:52.365Z,29.56
2022-08-26T09:13:26.301Z,29.70
2022-08-26T09:15:06.034Z,29.79
2022-08-26T09:16:46.884Z,29.95
2022-08-26T09:18:25.617Z,30.15
2022-08-26T09:20:24.035Z,30.27
2022-08-26T09:21:59.386Z,30.45
2022-08-26T09:23:32.272Z,30.60
2022-08-26T09:25:05.959Z,30.75
2022-08-26T09:26:40.439Z,30.89
2022-08-26T09:28:13.850Z,31.02
2022-08-26T09:29:45.741Z,31.15
2022-08-26T09:31:23.458Z,31.27
2022-08-26T09:33:10.225Z,31.37
2022-08-26T09:35:02.119Z,31.47
2022-08-26T09:36:41.278Z,31.59
2022-08-26T09:38:33.843Z,31.74
2022-08-26T09:40:34.940Z,31.92
2022-08-26T09:42:11.634Z,31.98
2022-08-26T09:43:43.863Z,32.03
2022-08-26T09:45:17.851Z,32.08
2022-08-26T09:47:15.453Z,32.05
2022-08-26T09:48:47.067Z,32.17
2022-08-26T09:50:29.353Z,32.26
2022-08-26T09:52:09.495Z,32.20
2022-08-26T09:53:51.901Z,32.34
2022-08-26T09:55:23.918Z,32.50
2022-08-26T09:56:56.711Z,32.59
2022-08-26T09:58:38.420Z,32.68
2022-08-26T10:00:30.900Z,32.79
2022-08-26T10:02:35.680Z,32.96
2022-08-26T10:04:08.673Z,33.08
2022-08-26T10:05:48.987Z,33.14
2022-08-26T10:07:40.798Z,33.17
2022-08-26T10:09:14.286Z,33.06
2022-08-26T10:10:46.476Z,33.02
2022-08-26T10:12:21.797Z,32.95
2022-08-26T10:14:04.467Z,32.87
2022-08-26T10:15:41.065Z,32.78
2022-08-26T10:17:20.609Z,32.69
2022-08-26T10:19:12.334Z,32.69
2022-08-26T10:20:52.183Z,32.76
2022-08-26T10:22:29.989Z,32.92
2022-08-26T10:24:02.576Z,32.99
2022-08-26T10:25:37.087Z,32.97
2022-08-26T10:27:19.611Z,32.92
2022-08-26T10:29:09.494Z,32.84
2022-08-26T10:30:43.370Z,32.85
2022-08-26T10:32:26.766Z,32.76
2022-08-26T10:34:00.924Z,32.85
2022-08-26T10:35:33.045Z,32.76
2022-08-26T10:37:16.753Z,32.83
2022-08-26T10:38:48.760Z,33.02
2022-08-26T10:40:27.730Z,32.99
2022-08-26T10:42:02.207Z,33.06
2022-08-26T10:43:36.473Z,33.22
2022-08-26T10:45:15.321Z,33.17
2022-08-26T10:46:51.248Z,33.05
2022-08-26T10:48:24.028Z,32.94
2022-08-26T10:50:00.440Z,32.85
2022-08-26T10:51:38.896Z,32.83
2022-08-26T10:53:29.196Z,32.79
2022-08-26T10:55:23.720Z,32.75
2022-08-26T10:57:02.712Z,32.63
2022-08-26T10:58:53.533Z,32.56
2022-08-26T11:00:46.563Z,32.51
2022-08-26T11:02:24.710Z,32.50
2022-08-26T11:04:01.612Z,32.52
2022-08-26T11:05:35.229Z,32.37
2022-08-26T11:07:26.556Z,32.28
2022-08-26T11:09:02.210Z,32.13
2022-08-26T11:10:44.106Z,32.20
2022-08-26T11:12:37.339Z,32.22
2022-08-26T11:14:12.476Z,32.18
2022-08-26T11:15:54.074Z,32.16
2022-08-26T11:18:03.471Z,32.08
2022-08-26T11:20:02.170Z,31.88
2022-08-26T11:21:50.803Z,31.65
2022-08-26T11:23:23.228Z,31.61
2022-08-26T11:24:55.889Z,31.60
2022-08-26T11:26:55.410Z,31.71
2022-08-26T11:28:45.863Z,31.80
2022-08-26T11:30:24.174Z,31.88
2022-08-26T11:31:56.640Z,32.01
2022-08-26T11:33:47.653Z,32.13
2022-08-26T11:35:19.883Z,32.19
2022-08-26T11:36:55.255Z,32.27
2022-08-26T11:38:30.442Z,32.24
2022-08-26T11:40:05.100Z,32.20
2022-08-26T11:41:37.146Z,32.28
2022-08-26T11:43:19.156Z,32.29
2022-08-26T11:44:52.108Z,32.15
2022-08-26T11:46:25.888Z,32.09
2022-08-26T11:47:58.613Z,32.05
2022-08-26T11:49:32.679Z,32.06
2022-08-26T11:51:09.530Z,32.01
2022-08-26T11:52:42.992Z,31.83
2022-08-26T11:54:16.877Z,31.70
2022-08-26T11:56:02.973Z,31.77
2022-08-26T11:57:36.026Z,31.73
2022-08-26T11:59:11.959Z,31.76
2022-08-26T12:00:46.915Z,31.75
2022-08-26T12:02:19.974Z,31.67
2022-08-26T12:03:52.652Z,31.72
2022-08-26T12:05:31.975Z,31.69
2022-08-26T12:07:05.254Z,31.67
2022-08-26T12:08:44.244Z,31.62
2022-08-26T12:10:25.450Z,31.61
2022-08-26T12:12:24.686Z,31.61
2022-08-26T12:14:08.568Z,31.49
2022-08-26T12:15:40.763Z,31.48
2022-08-26T12:17:17.173Z,31.47
2022-08-26T12:18:52.235Z,31.51
2022-08-26T12:20:47.155Z,31.60
2022-08-26T12:22:48.222Z,31.56
2022-08-26T12:24:21.736Z,31.68
2022-08-26T12:26:06.627Z,31.79
2022-08-26T12:27:42.706Z,31.84
2022-08-26T12:29:28.901Z,31.75
2022-08-26T12:31:02.294Z,31.70
2022-08-26T12:32:35.686Z,31.68
2022-08-26T12:34:12.766Z,31.74
2022-08-26T12:35:54.347Z,31.84
2022-08-26T12:37:30.249Z,32.04
2022-08-26T12:39:28.601Z,32.27
2022-08-26T12:41:00.500Z,32.32
2022-08-26T12:42:42.462Z,32.45
2022-08-26T12:44:34.690Z,32.56
2022-08-26T12:46:06.865Z,32.69
2022-08-26T12:47:44.137Z,32.79
2022-08-26T12:49:19.177Z,32.95
2022-08-26T12:50:52.357Z,33.03
2022-08-26T12:52:30.634Z,33.04
2022-08-26T12:54:06.880Z,33.12
2022-08-26T12:55:39.460Z,33.18
2022-08-26T12:57:11.606Z,33.28
2022-08-26T12:58:44.162Z,33.18
2022-08-26T13:00:32.383Z,33.07
2022-08-26T13:02:05.631Z,32.92
2022-08-26T13:03:37.897Z,32.90
2022-08-26T13:05:11.646Z,32.85
2022-08-26T13:06:44.483Z,32.67
2022-08-26T13:08:27.536Z,32.61
2022-08-26T13:10:00.839Z,32.56
2022-08-26T13:11:42.482Z,32.65
2022-08-26T13:13:14.331Z,32.80
2022-08-26T13:14:46.504Z,32.96
2022-08-26T13:16:19.809Z,33.12
2022-08-26T13:17:51.754Z,33.22
2022-08-26T13:19:24.135Z,33.27
2022-08-26T13:20:56.497Z,33.26
2022-08-26T13:22:28.466Z,33.26
2022-08-26T13:24:13.451Z,33.30
2022-08-26T13:25:45.505Z,33.33
2022-08-26T13:27:20.716Z,33.29
2022-08-26T13:28:53.276Z,33.30
2022-08-26T13:30:33.883Z,33.32
2022-08-26T13:32:06.491Z,33.11
2022-08-26T13:33:38.282Z,32.96
2022-08-26T13:35:11.982Z,32.78
2022-08-26T13:36:45.415Z,32.59
2022-08-26T13:38:18.604Z,32.58
2022-08-26T13:40:06.976Z,32.55
2022-08-26T13:41:39.556Z,32.44
2022-08-26T13:43:12.104Z,32.42
2022-08-26T13:44:45.217Z,32.41
2022-08-26T13:46:16.946Z,32.37
2022-08-26T13:47:50.261Z,32.32
2022-08-26T13:49:22.936Z,32.29
2022-08-26T13:50:55.156Z,32.26
2022-08-26T13:52:30.678Z,32.24
2022-08-26T13:54:03.140Z,32.31
2022-08-26T13:55:35.478Z,32.38
2022-08-26T13:57:07.454Z,32.47
2022-08-26T13:58:39.702Z,32.58
2022-08-26T14:00:12.311Z,32.66
2022-08-26T14:01:44.669Z,32.76
2022-08-26T14:03:17.148Z,32.78
2022-08-26T14:04:49.297Z,32.72
2022-08-26T14:06:21.230Z,32.64
2022-08-26T14:07:53.514Z,32.54
2022-08-26T14:09:25.664Z,32.41
2022-08-26T14:10:57.620Z,32.29
2022-08-26T14:12:29.828Z,32.15
2022-08-26T14:14:01.907Z,32.02
2022-08-26T14:15:34.835Z,31.87
2022-08-26T14:17:06.819Z,31.77
2022-08-26T14:18:43.643Z,31.67
2022-08-26T14:20:25.254Z,31.55
2022-08-26T14:21:57.057Z,31.44
2022-08-26T14:23:28.944Z,31.31
2022-08-26T14:25:01.047Z,31.25
2022-08-26T14:26:33.272Z,31.24
2022-08-26T14:28:05.069Z,31.33
2022-08-26T14:29:37.001Z,31.44
2022-08-26T14:31:09.142Z,31.44
2022-08-26T14:32:42.944Z,31.47
2022-08-26T14:34:14.953Z,31.50
2022-08-26T14:35:48.875Z,31.61
2022-08-26T14:37:21.178Z,31.62
2022-08-26T14:38:54.127Z,31.60
2022-08-26T14:40:27.345Z,31.62
2022-08-26T14:41:59.135Z,31.62
2022-08-26T14:43:31.424Z,31.56
2022-08-26T14:45:04.192Z,31.51
2022-08-26T14:46:37.893Z,31.42
2022-08-26T14:48:09.889Z,31.39
2022-08-26T14:49:41.902Z,31.47
2022-08-26T14:51:13.609Z,31.50
2022-08-26T14:53:03.736Z,31.58
2022-08-26T14:54:35.475Z,31.67
2022-08-26T14:56:07.247Z,31.76
2022-08-26T14:57:39.406Z,31.86
2022-08-26T14:59:11.270Z,31.96
2022-08-26T15:00:42.980Z,32.02
2022-08-26T15:02:32.488Z,32.13
2022-08-26T15:04:05.846Z,32.16
2022-08-26T15:05:38.181Z,32.13
2022-08-26T15:07:12.654Z,32.13
2022-08-26T15:08:44.662Z,32.07
2022-08-26T15:10:17.153Z,32.15
2022-08-26T15:11:48.908Z,32.27
2022-08-26T15:13:21.088Z,32.32
2022-08-26T15:14:55.385Z,32.24
2022-08-26T15:16:30.194Z,32.17
2022-08-26T15:18:03.179Z,32.10
2022-08-26T15:19:35.306Z,32.00
2022-08-26T15:21:07.540Z,31.87
2022-08-26T15:22:39.543Z,31.84
2022-08-26T15:24:11.440Z,31.86
2022-08-26T15:25:43.509Z,31.89
2022-08-26T15:27:15.347Z,31.85
2022-08-26T15:28:47.038Z,31.82
2022-08-26T15:30:18.700Z,31.76
2022-08-26T15:31:50.710Z,31.64
2022-08-26T15:33:22.659Z,31.56
2022-08-26T15:34:54.531Z,31.51
2022-08-26T15:36:26.993Z,31.44
2022-08-26T15:37:58.726Z,31.33
2022-08-26T15:39:30.658Z,31.29
2022-08-26T15:41:03.354Z,31.31
2022-08-26T15:42:35.429Z,31.27
2022-08-26T15:44:07.398Z,31.23
2022-08-26T15:45:39.265Z,31.21
2022-08-26T15:47:11.503Z,31.19
2022-08-26T15:48:43.223Z,31.18
2022-08-26T15:50:15.041Z,31.13
2022-08-26T15:51:48.517Z,31.03
2022-08-26T15:53:21.861Z,30.98
2022-08-26T15:54:53.624Z,30.87
2022-08-26T15:56:26.206Z,30.71
2022-08-26T15:57:58.773Z,30.59
2022-08-26T15:59:33.230Z,30.49
2022-08-26T16:01:05.242Z,30.45
2022-08-26T16:02:36.916Z,30.44
2022-08-26T16:04:08.624Z,30.40
2022-08-26T16:05:41.019Z,30.37
2022-08-26T16:07:12.972Z,30.31
2022-08-26T16:08:45.298Z,30.23
2022-08-26T16:10:18.753Z,30.25
2022-08-26T16:11:50.608Z,30.19
2022-08-26T16:13:22.225Z,30.15
2022-08-26T16:14:54.174Z,30.09
2022-08-26T16:16:26.769Z,30.01
2022-08-26T16:18:02.616Z,29.91
2022-08-26T16:19:34.590Z,29.84
2022-08-26T16:21:13.728Z,29.79
2022-08-26T16:22:45.802Z,29.74
2022-08-26T16:24:18.251Z,29.67
2022-08-26T16:25:50.091Z,29.58
2022-08-26T16:27:23.236Z,29.50
2022-08-26T16:28:55.213Z,29.44
2022-08-26T16:30:26.898Z,29.44
2022-08-26T16:31:58.804Z,29.39
2022-08-26T16:33:30.562Z,29.30
2022-08-26T16:35:02.233Z,29.20
2022-08-26T16:36:34.185Z,29.14
2022-08-26T16:38:05.906Z,28.92
2022-08-26T16:39:40.186Z,28.82
2022-08-26T16:41:16.942Z,28.73
2022-08-26T16:42:49.153Z,28.63
2022-08-26T16:44:22.402Z,28.61
2022-08-26T16:45:54.352Z,28.50
2022-08-26T16:47:26.638Z,28.43
2022-08-26T16:48:58.441Z,28.32
2022-08-26T16:50:30.253Z,28.26
2022-08-26T16:52:02.264Z,28.23
2022-08-26T16:53:34.021Z,28.08
2022-08-26T16:55:06.720Z,27.87
2022-08-26T16:56:38.742Z,27.73
2022-08-26T16:58:10.534Z,27.62
2022-08-26T16:59:42.387Z,27.58
2022-08-26T17:01:14.406Z,27.48
2022-08-26T17:02:46.076Z,27.37
2022-08-26T17:04:20.123Z,27.25
2022-08-26T17:05:52.005Z,27.21
2022-08-26T17:07:23.630Z,27.23
2022-08-26T17:08:55.381Z,27.20
2022-08-26T17:10:27.498Z,27.11
2022-08-26T17:11:59.163Z,26.98
2022-08-26T17:13:35.249Z,26.94
2022-08-26T17:15:08.156Z,26.90
2022-08-26T17:16:40.274Z,26.85
2022-08-26T17:18:12.349Z,26.77
2022-08-26T17:19:46.835Z,26.66
2022-08-26T17:21:18.992Z,26.47
2022-08-26T17:22:51.140Z,26.38
2022-08-26T17:24:22.866Z,26.37
2022-08-26T17:25:54.780Z,26.25
2022-08-26T17:27:26.741Z,26.12
2022-08-26T17:28:58.508Z,26.05
2022-08-26T17:30:30.999Z,26.01
2022-08-26T17:32:03.009Z,25.99
2022-08-26T17:33:34.968Z,26.01
2022-08-26T17:35:07.065Z,26.00
2022-08-26T17:36:38.764Z,25.97
2022-08-26T17:38:10.720Z,25.95
2022-08-26T17:39:44.249Z,25.93
2022-08-26T17:41:16.824Z,25.88
2022-08-26T17:42:48.633Z,25.87
2022-08-26T17:44:20.352Z,25.86
2022-08-26T17:45:52.806Z,25.80
2022-08-26T17:47:24.613Z,25.65
2022-08-26T17:48:56.699Z,25.57
2022-08-26T17:50:28.555Z,25.55
2022-08-26T17:52:00.275Z,25.53
2022-08-26T17:53:32.252Z,25.48
2022-08-26T17:55:04.754Z,25.43
2022-08-26T17:56:36.742Z,25.39
2022-08-26T17:58:08.780Z,25.35
2022-08-26T17:59:42.637Z,25.32
2022-08-26T18:01:14.485Z,25.33
2022-08-26T18:02:46.316Z,25.30
2022-08-26T18:04:18.213Z,25.29
2022-08-26T18:05:50.592Z,25.27
2022-08-26T18:07:22.437Z,25.24
2022-08-26T18:08:54.938Z,25.16
2022-08-26T18:10:26.793Z,25.08
2022-08-26T18:11:58.856Z,24.99
2022-08-26T18:13:30.455Z,24.94
2022-08-26T18:15:02.370Z,24.93
2022-08-26T18:16:38.465Z,24.86
2022-08-26T18:18:10.208Z,24.86
2022-08-26T18:21:19.458Z,24.78
2022-08-26T18:22:51.199Z,24.72
2022-08-26T18:24:22.928Z,24.64
2022-08-26T18:25:54.668Z,24.64
2022-08-26T18:27:26.564Z,24.67
2022-08-26T18:28:58.581Z,24.67
2022-08-26T18:30:30.306Z,24.66
2022-08-26T18:32:02.526Z,24.64
2022-08-26T18:33:34.347Z,24.56
2022-08-26T18:35:06.420Z,24.53
2022-08-26T18:36:38.230Z,24.47
2022-08-26T18:38:11.184Z,24.44
2022-08-26T18:39:43.436Z,24.32
2022-08-26T18:41:15.155Z,24.20
2022-08-26T18:42:49.274Z,24.09
2022-08-26T18:44:26.146Z,23.98
2022-08-26T18:46:04.424Z,23.91
2022-08-26T18:47:36.284Z,23.91
2022-08-26T18:49:08.540Z,23.92
2022-08-26T18:50:40.755Z,23.87
2022-08-26T18:52:12.826Z,23.85
2022-08-26T18:53:45.143Z,23.79
2022-08-26T18:55:17.450Z,23.70
2022-08-26T18:56:49.226Z,23.63
2022-08-26T18:58:20.944Z,23.53
2022-08-26T18:59:52.625Z,23.41
2022-08-26T19:01:27.328Z,23.32
2022-08-26T19:02:59.376Z,23.23
2022-08-26T19:04:32.909Z,23.14
2022-08-26T19:06:05.533Z,23.11
2022-08-26T19:07:39.677Z,23.13
2022-08-26T19:09:14.562Z,23.20
2022-08-26T19:10:49.792Z,23.26
2022-08-26T19:12:22.098Z,23.32
2022-08-26T19:13:58.631Z,23.37
2022-08-26T19:15:30.458Z,23.44
2022-08-26T19:17:02.846Z,23.45
2022-08-26T19:18:35.446Z,23.46
2022-08-26T19:20:07.876Z,23.53
2022-08-26T19:21:39.997Z,23.56
2022-08-26T19:23:30.473Z,23.54
2022-08-26T19:25:03.022Z,23.48
2022-08-26T19:26:35.294Z,23.44
2022-08-26T19:28:07.201Z,23.42
2022-08-26T19:29:39.488Z,23.42
2022-08-26T19:31:11.717Z,23.35
2022-08-26T19:32:43.481Z,23.20
2022-08-26T19:34:15.642Z,23.04
2022-08-26T19:35:50.208Z,22.93
2022-08-26T19:37:22.682Z,22.83
2022-08-26T19:38:54.711Z,22.73
2022-08-26T19:40:26.941Z,22.67
2022-08-26T19:41:59.633Z,22.64
2022-08-26T19:43:32.222Z,22.63
2022-08-26T19:45:24.864Z,22.67
2022-08-26T19:46:57.533Z,22.75
2022-08-26T19:48:29.575Z,22.78
2022-08-26T19:50:01.689Z,22.86
2022-08-26T19:51:34.338Z,22.88
2022-08-26T19:53:06.144Z,22.84
2022-08-26T19:54:38.265Z,22.83
2022-08-26T19:56:10.294Z,22.86
2022-08-26T19:57:42.950Z,22.88
2022-08-26T19:59:15.308Z,22.88
2022-08-26T20:00:47.248Z,22.90
2022-08-26T20:02:19.644Z,22.92
2022-08-26T20:03:51.607Z,22.94
2022-08-26T20:05:24.067Z,22.95
2022-08-26T20:06:58.735Z,22.95
2022-08-26T20:08:33.022Z,22.88
2022-08-26T20:10:06.767Z,22.85
2022-08-26T20:11:39.049Z,22.87
2022-08-26T20:13:11.491Z,22.83
2022-08-26T20:14:43.236Z,22.74
2022-08-26T20:16:15.588Z,22.68
2022-08-26T20:17:47.568Z,22.63
2022-08-26T20:19:57.023Z,22.54
2022-08-26T20:21:30.251Z,22.48